sensor_id;sensor_type;location;lat;lon;timestamp;P1;durP1;ratioP1;P2;durP2;ratioP2
64031;SDS011;50278;47.796;11.968;2023-04-08T00:01:39;7.68;;;5.28;;
64031;SDS011;50278;47.796;11.968;2023-04-08T00:04:05;6.63;;;4.30;;
64031;SDS011;50278;47.796;11.968;2023-04-08T00:06:33;5.30;;;4.68;;
64031;SDS011;50278;47.796;11.968;2023-04-08T00:08:59;5.47;;;3.90;;
64031;SDS011;50278;47.796;11.968;2023-04-08T00:11:25;7.25;;;4.57;;
64031;SDS011;50278;47.796;11.968;2023-04-08T00:13:50;6.63;;;4.20;;
64031;SDS011;50278;47.796;11.968;2023-04-08T00:16:16;4.82;;;3.90;;
64031;SDS011;50278;47.796;11.968;2023-04-08T00:18:41;5.53;;;4.03;;
64031;SDS011;50278;47.796;11.968;2023-04-08T00:21:07;5.18;;;4.13;;
64031;SDS011;50278;47.796;11.968;2023-04-08T00:23:33;5.90;;;4.10;;
64031;SDS011;50278;47.796;11.968;2023-04-08T00:25:58;5.03;;;4.20;;
64031;SDS011;50278;47.796;11.968;2023-04-08T00:28:24;5.32;;;4.30;;
64031;SDS011;50278;47.796;11.968;2023-04-08T00:30:51;5.60;;;4.30;;
64031;SDS011;50278;47.796;11.968;2023-04-08T00:33:17;6.20;;;4.35;;
64031;SDS011;50278;47.796;11.968;2023-04-08T00:35:42;5.07;;;4.55;;
64031;SDS011;50278;47.796;11.968;2023-04-08T00:38:08;6.78;;;4.78;;
64031;SDS011;50278;47.796;11.968;2023-04-08T00:40:34;6.70;;;4.68;;
64031;SDS011;50278;47.796;11.968;2023-04-08T00:42:59;6.35;;;4.25;;
64031;SDS011;50278;47.796;11.968;2023-04-08T00:45:25;6.75;;;4.53;;
64031;SDS011;50278;47.796;11.968;2023-04-08T00:47:50;5.80;;;4.75;;
64031;SDS011;50278;47.796;11.968;2023-04-08T00:50:16;5.28;;;4.25;;
64031;SDS011;50278;47.796;11.968;2023-04-08T00:52:42;5.90;;;4.05;;
64031;SDS011;50278;47.796;11.968;2023-04-08T00:55:08;6.03;;;4.50;;
64031;SDS011;50278;47.796;11.968;2023-04-08T00:57:34;6.10;;;4.22;;
64031;SDS011;50278;47.796;11.968;2023-04-08T01:00:00;6.82;;;4.82;;
64031;SDS011;50278;47.796;11.968;2023-04-08T01:02:38;6.35;;;4.63;;
64031;SDS011;50278;47.796;11.968;2023-04-08T01:05:09;6.70;;;4.93;;
64031;SDS011;50278;47.796;11.968;2023-04-08T01:07:46;6.63;;;4.93;;
64031;SDS011;50278;47.796;11.968;2023-04-08T01:10:25;6.88;;;5.18;;
64031;SDS011;50278;47.796;11.968;2023-04-08T01:13:02;6.40;;;5.07;;
64031;SDS011;50278;47.796;11.968;2023-04-08T01:15:30;7.18;;;5.25;;
64031;SDS011;50278;47.796;11.968;2023-04-08T01:17:59;7.53;;;5.30;;
64031;SDS011;50278;47.796;11.968;2023-04-08T01:20:30;9.05;;;5.40;;
64031;SDS011;50278;47.796;11.968;2023-04-08T01:27:56;7.80;;;5.43;;
64031;SDS011;50278;47.796;11.968;2023-04-08T01:30:25;6.78;;;5.10;;
64031;SDS011;50278;47.796;11.968;2023-04-08T01:32:56;8.50;;;5.50;;
64031;SDS011;50278;47.796;11.968;2023-04-08T01:35:23;7.88;;;4.72;;
64031;SDS011;50278;47.796;11.968;2023-04-08T01:37:50;6.60;;;5.22;;
64031;SDS011;50278;47.796;11.968;2023-04-08T01:40:16;6.90;;;5.18;;
64031;SDS011;50278;47.796;11.968;2023-04-08T01:42:43;7.35;;;5.13;;
64031;SDS011;50278;47.796;11.968;2023-04-08T01:45:11;7.05;;;4.88;;
64031;SDS011;50278;47.796;11.968;2023-04-08T01:47:37;7.22;;;5.70;;
64031;SDS011;50278;47.796;11.968;2023-04-08T01:50:04;7.60;;;5.47;;
64031;SDS011;50278;47.796;11.968;2023-04-08T01:52:31;9.43;;;6.47;;
64031;SDS011;50278;47.796;11.968;2023-04-08T01:54:59;8.55;;;6.25;;
64031;SDS011;50278;47.796;11.968;2023-04-08T01:57:29;8.20;;;5.60;;
64031;SDS011;50278;47.796;11.968;2023-04-08T02:00:02;8.80;;;6.55;;
64031;SDS011;50278;47.796;11.968;2023-04-08T02:02:44;8.27;;;5.88;;
64031;SDS011;50278;47.796;11.968;2023-04-08T02:05:11;8.55;;;6.15;;
64031;SDS011;50278;47.796;11.968;2023-04-08T02:07:38;6.18;;;4.93;;
64031;SDS011;50278;47.796;11.968;2023-04-08T02:10:03;8.40;;;6.20;;
64031;SDS011;50278;47.796;11.968;2023-04-08T02:12:29;8.48;;;5.78;;
64031;SDS011;50278;47.796;11.968;2023-04-08T02:14:56;7.50;;;5.80;;
64031;SDS011;50278;47.796;11.968;2023-04-08T02:17:31;8.15;;;5.88;;
64031;SDS011;50278;47.796;11.968;2023-04-08T02:25:44;8.52;;;6.07;;
64031;SDS011;50278;47.796;11.968;2023-04-08T02:28:12;6.68;;;5.78;;
64031;SDS011;50278;47.796;11.968;2023-04-08T02:30:43;7.60;;;5.63;;
64031;SDS011;50278;47.796;11.968;2023-04-08T02:33:14;8.40;;;5.80;;
64031;SDS011;50278;47.796;11.968;2023-04-08T02:35:45;9.00;;;5.47;;
64031;SDS011;50278;47.796;11.968;2023-04-08T02:38:13;9.48;;;6.43;;
64031;SDS011;50278;47.796;11.968;2023-04-08T02:40:40;7.13;;;5.40;;
64031;SDS011;50278;47.796;11.968;2023-04-08T02:43:06;7.68;;;5.68;;
64031;SDS011;50278;47.796;11.968;2023-04-08T02:45:32;7.28;;;6.05;;
64031;SDS011;50278;47.796;11.968;2023-04-08T02:48:03;7.97;;;6.25;;
64031;SDS011;50278;47.796;11.968;2023-04-08T02:50:29;8.27;;;5.85;;
64031;SDS011;50278;47.796;11.968;2023-04-08T02:52:55;8.77;;;5.85;;
64031;SDS011;50278;47.796;11.968;2023-04-08T02:55:21;6.88;;;5.93;;
64031;SDS011;50278;47.796;11.968;2023-04-08T02:57:46;8.52;;;6.32;;
64031;SDS011;50278;47.796;11.968;2023-04-08T03:00:13;7.20;;;5.43;;
64031;SDS011;50278;47.796;11.968;2023-04-08T03:02:39;7.93;;;6.28;;
64031;SDS011;50278;47.796;11.968;2023-04-08T03:05:05;7.70;;;5.97;;
64031;SDS011;50278;47.796;11.968;2023-04-08T03:07:31;7.43;;;5.75;;
64031;SDS011;50278;47.796;11.968;2023-04-08T03:09:57;8.23;;;5.80;;
64031;SDS011;50278;47.796;11.968;2023-04-08T03:12:22;7.30;;;5.65;;
64031;SDS011;50278;47.796;11.968;2023-04-08T03:14:48;7.00;;;5.22;;
64031;SDS011;50278;47.796;11.968;2023-04-08T03:17:14;7.03;;;5.40;;
64031;SDS011;50278;47.796;11.968;2023-04-08T03:19:40;7.95;;;5.95;;
64031;SDS011;50278;47.796;11.968;2023-04-08T03:22:06;7.63;;;5.72;;
64031;SDS011;50278;47.796;11.968;2023-04-08T03:24:33;7.68;;;5.47;;
64031;SDS011;50278;47.796;11.968;2023-04-08T03:26:59;9.68;;;6.25;;
64031;SDS011;50278;47.796;11.968;2023-04-08T03:29:25;9.65;;;5.95;;
64031;SDS011;50278;47.796;11.968;2023-04-08T03:31:51;8.80;;;6.07;;
64031;SDS011;50278;47.796;11.968;2023-04-08T03:34:16;9.60;;;5.72;;
64031;SDS011;50278;47.796;11.968;2023-04-08T03:36:42;8.07;;;6.55;;
64031;SDS011;50278;47.796;11.968;2023-04-08T03:39:07;9.80;;;6.80;;
64031;SDS011;50278;47.796;11.968;2023-04-08T03:41:33;7.32;;;6.00;;
64031;SDS011;50278;47.796;11.968;2023-04-08T03:43:58;6.18;;;4.97;;
64031;SDS011;50278;47.796;11.968;2023-04-08T03:46:24;10.35;;;5.40;;
64031;SDS011;50278;47.796;11.968;2023-04-08T03:48:49;8.23;;;6.25;;
64031;SDS011;50278;47.796;11.968;2023-04-08T03:51:15;6.45;;;5.72;;
64031;SDS011;50278;47.796;11.968;2023-04-08T03:53:40;8.00;;;6.22;;
64031;SDS011;50278;47.796;11.968;2023-04-08T03:56:06;8.02;;;6.13;;
64031;SDS011;50278;47.796;11.968;2023-04-08T03:58:32;8.13;;;5.90;;
64031;SDS011;50278;47.796;11.968;2023-04-08T04:00:57;7.72;;;5.82;;
64031;SDS011;50278;47.796;11.968;2023-04-08T04:03:23;8.02;;;5.72;;
64031;SDS011;50278;47.796;11.968;2023-04-08T04:05:49;7.82;;;5.75;;
64031;SDS011;50278;47.796;11.968;2023-04-08T04:08:14;8.80;;;6.15;;
64031;SDS011;50278;47.796;11.968;2023-04-08T04:10:40;7.53;;;6.28;;
64031;SDS011;50278;47.796;11.968;2023-04-08T04:13:06;8.07;;;5.40;;
64031;SDS011;50278;47.796;11.968;2023-04-08T04:15:31;10.30;;;6.03;;
64031;SDS011;50278;47.796;11.968;2023-04-08T04:17:57;8.55;;;5.40;;
64031;SDS011;50278;47.796;11.968;2023-04-08T04:20:22;7.53;;;6.18;;
64031;SDS011;50278;47.796;11.968;2023-04-08T04:22:50;9.18;;;5.95;;
64031;SDS011;50278;47.796;11.968;2023-04-08T04:25:16;8.27;;;5.95;;
64031;SDS011;50278;47.796;11.968;2023-04-08T04:27:41;8.18;;;6.32;;
64031;SDS011;50278;47.796;11.968;2023-04-08T04:30:07;7.18;;;5.68;;
64031;SDS011;50278;47.796;11.968;2023-04-08T04:32:33;8.88;;;6.57;;
64031;SDS011;50278;47.796;11.968;2023-04-08T04:34:59;9.48;;;6.10;;
64031;SDS011;50278;47.796;11.968;2023-04-08T04:37:25;9.13;;;6.38;;
64031;SDS011;50278;47.796;11.968;2023-04-08T04:39:58;10.27;;;6.30;;
64031;SDS011;50278;47.796;11.968;2023-04-08T04:42:34;7.97;;;6.80;;
64031;SDS011;50278;47.796;11.968;2023-04-08T04:44:59;7.82;;;6.18;;
64031;SDS011;50278;47.796;11.968;2023-04-08T04:47:25;9.55;;;6.30;;
64031;SDS011;50278;47.796;11.968;2023-04-08T04:49:50;10.55;;;6.30;;
64031;SDS011;50278;47.796;11.968;2023-04-08T04:52:16;9.38;;;6.22;;
64031;SDS011;50278;47.796;11.968;2023-04-08T04:54:42;9.40;;;5.65;;
64031;SDS011;50278;47.796;11.968;2023-04-08T04:57:08;9.15;;;5.82;;
64031;SDS011;50278;47.796;11.968;2023-04-08T04:59:35;8.40;;;5.68;;
64031;SDS011;50278;47.796;11.968;2023-04-08T05:02:00;9.75;;;7.25;;
64031;SDS011;50278;47.796;11.968;2023-04-08T05:04:26;7.25;;;5.53;;
64031;SDS011;50278;47.796;11.968;2023-04-08T05:06:51;8.80;;;5.88;;
64031;SDS011;50278;47.796;11.968;2023-04-08T05:09:17;7.13;;;5.18;;
64031;SDS011;50278;47.796;11.968;2023-04-08T05:11:43;7.32;;;5.05;;
64031;SDS011;50278;47.796;11.968;2023-04-08T05:14:08;8.85;;;5.85;;
64031;SDS011;50278;47.796;11.968;2023-04-08T05:16:34;6.80;;;5.57;;
64031;SDS011;50278;47.796;11.968;2023-04-08T05:19:00;7.43;;;5.65;;
64031;SDS011;50278;47.796;11.968;2023-04-08T05:21:25;7.72;;;5.93;;
64031;SDS011;50278;47.796;11.968;2023-04-08T05:23:51;8.65;;;5.93;;
64031;SDS011;50278;47.796;11.968;2023-04-08T05:26:20;7.53;;;6.07;;
64031;SDS011;50278;47.796;11.968;2023-04-08T05:28:47;8.75;;;6.30;;
64031;SDS011;50278;47.796;11.968;2023-04-08T05:31:16;7.47;;;5.88;;
64031;SDS011;50278;47.796;11.968;2023-04-08T05:33:42;8.57;;;6.03;;
64031;SDS011;50278;47.796;11.968;2023-04-08T05:36:09;7.72;;;5.85;;
64031;SDS011;50278;47.796;11.968;2023-04-08T05:38:35;7.30;;;5.68;;
64031;SDS011;50278;47.796;11.968;2023-04-08T05:41:01;6.32;;;5.32;;
64031;SDS011;50278;47.796;11.968;2023-04-08T05:43:27;7.72;;;5.65;;
64031;SDS011;50278;47.796;11.968;2023-04-08T05:45:52;8.07;;;6.03;;
64031;SDS011;50278;47.796;11.968;2023-04-08T05:48:18;7.47;;;5.05;;
64031;SDS011;50278;47.796;11.968;2023-04-08T05:50:43;6.95;;;5.22;;
64031;SDS011;50278;47.796;11.968;2023-04-08T05:53:09;7.20;;;5.63;;
64031;SDS011;50278;47.796;11.968;2023-04-08T05:55:35;7.38;;;5.22;;
64031;SDS011;50278;47.796;11.968;2023-04-08T05:58:00;7.47;;;5.25;;
64031;SDS011;50278;47.796;11.968;2023-04-08T06:00:26;6.57;;;4.80;;
64031;SDS011;50278;47.796;11.968;2023-04-08T06:02:52;8.98;;;5.30;;
64031;SDS011;50278;47.796;11.968;2023-04-08T06:05:17;6.68;;;4.40;;
64031;SDS011;50278;47.796;11.968;2023-04-08T06:07:43;6.25;;;4.78;;
64031;SDS011;50278;47.796;11.968;2023-04-08T06:10:08;7.30;;;4.55;;
64031;SDS011;50278;47.796;11.968;2023-04-08T06:12:35;5.63;;;4.88;;
64031;SDS011;50278;47.796;11.968;2023-04-08T06:15:02;6.05;;;4.82;;
64031;SDS011;50278;47.796;11.968;2023-04-08T06:17:28;6.13;;;4.70;;
64031;SDS011;50278;47.796;11.968;2023-04-08T06:19:54;5.40;;;4.32;;
64031;SDS011;50278;47.796;11.968;2023-04-08T06:22:20;6.45;;;4.50;;
64031;SDS011;50278;47.796;11.968;2023-04-08T06:24:46;7.43;;;4.47;;
64031;SDS011;50278;47.796;11.968;2023-04-08T06:27:12;5.65;;;4.20;;
64031;SDS011;50278;47.796;11.968;2023-04-08T06:29:37;6.97;;;5.10;;
64031;SDS011;50278;47.796;11.968;2023-04-08T06:32:03;5.88;;;4.65;;
64031;SDS011;50278;47.796;11.968;2023-04-08T06:34:30;8.07;;;5.68;;
64031;SDS011;50278;47.796;11.968;2023-04-08T06:36:55;6.97;;;5.40;;
64031;SDS011;50278;47.796;11.968;2023-04-08T06:39:21;9.25;;;5.85;;
64031;SDS011;50278;47.796;11.968;2023-04-08T06:41:47;8.57;;;5.32;;
64031;SDS011;50278;47.796;11.968;2023-04-08T06:44:25;13.50;;;5.82;;
64031;SDS011;50278;47.796;11.968;2023-04-08T06:46:51;7.05;;;5.00;;
64031;SDS011;50278;47.796;11.968;2023-04-08T06:49:16;8.57;;;4.72;;
64031;SDS011;50278;47.796;11.968;2023-04-08T06:51:42;7.55;;;4.63;;
64031;SDS011;50278;47.796;11.968;2023-04-08T06:54:07;5.25;;;4.18;;
64031;SDS011;50278;47.796;11.968;2023-04-08T06:56:34;7.45;;;4.72;;
64031;SDS011;50278;47.796;11.968;2023-04-08T06:59:00;6.28;;;5.00;;
64031;SDS011;50278;47.796;11.968;2023-04-08T07:01:26;7.47;;;5.07;;
64031;SDS011;50278;47.796;11.968;2023-04-08T07:03:51;9.05;;;5.50;;
64031;SDS011;50278;47.796;11.968;2023-04-08T07:06:17;6.50;;;5.20;;
64031;SDS011;50278;47.796;11.968;2023-04-08T07:08:42;7.63;;;5.57;;
64031;SDS011;50278;47.796;11.968;2023-04-08T07:11:08;8.23;;;6.80;;
64031;SDS011;50278;47.796;11.968;2023-04-08T07:13:33;7.63;;;6.40;;
64031;SDS011;50278;47.796;11.968;2023-04-08T07:15:59;7.72;;;6.57;;
64031;SDS011;50278;47.796;11.968;2023-04-08T07:18:24;9.70;;;6.70;;
64031;SDS011;50278;47.796;11.968;2023-04-08T07:20:50;8.38;;;6.72;;
64031;SDS011;50278;47.796;11.968;2023-04-08T07:23:19;7.80;;;6.07;;
64031;SDS011;50278;47.796;11.968;2023-04-08T07:25:45;8.52;;;6.15;;
64031;SDS011;50278;47.796;11.968;2023-04-08T07:28:12;9.85;;;6.97;;
64031;SDS011;50278;47.796;11.968;2023-04-08T07:30:37;8.18;;;6.22;;
64031;SDS011;50278;47.796;11.968;2023-04-08T07:33:03;9.52;;;6.57;;
64031;SDS011;50278;47.796;11.968;2023-04-08T07:35:29;8.48;;;6.45;;
64031;SDS011;50278;47.796;11.968;2023-04-08T07:37:57;7.18;;;6.07;;
64031;SDS011;50278;47.796;11.968;2023-04-08T07:40:40;9.57;;;7.07;;
64031;SDS011;50278;47.796;11.968;2023-04-08T07:43:05;9.05;;;7.00;;
64031;SDS011;50278;47.796;11.968;2023-04-08T07:45:31;10.75;;;7.13;;
64031;SDS011;50278;47.796;11.968;2023-04-08T07:47:56;9.18;;;6.63;;
64031;SDS011;50278;47.796;11.968;2023-04-08T07:50:22;9.32;;;6.30;;
64031;SDS011;50278;47.796;11.968;2023-04-08T07:52:47;8.85;;;6.47;;
64031;SDS011;50278;47.796;11.968;2023-04-08T07:55:13;6.68;;;4.75;;
64031;SDS011;50278;47.796;11.968;2023-04-08T07:57:38;8.70;;;6.22;;
64031;SDS011;50278;47.796;11.968;2023-04-08T08:00:04;7.47;;;5.63;;
64031;SDS011;50278;47.796;11.968;2023-04-08T08:02:38;8.93;;;6.80;;
64031;SDS011;50278;47.796;11.968;2023-04-08T08:05:04;9.50;;;6.60;;
64031;SDS011;50278;47.796;11.968;2023-04-08T08:07:30;10.57;;;6.97;;
64031;SDS011;50278;47.796;11.968;2023-04-08T08:09:55;9.30;;;6.88;;
64031;SDS011;50278;47.796;11.968;2023-04-08T08:12:21;10.52;;;7.65;;
64031;SDS011;50278;47.796;11.968;2023-04-08T08:14:48;9.85;;;7.13;;
64031;SDS011;50278;47.796;11.968;2023-04-08T08:17:14;9.75;;;6.93;;
64031;SDS011;50278;47.796;11.968;2023-04-08T08:19:40;10.30;;;7.57;;
64031;SDS011;50278;47.796;11.968;2023-04-08T08:22:06;12.50;;;8.05;;
64031;SDS011;50278;47.796;11.968;2023-04-08T08:24:31;9.88;;;7.32;;
64031;SDS011;50278;47.796;11.968;2023-04-08T08:26:57;9.23;;;6.80;;
64031;SDS011;50278;47.796;11.968;2023-04-08T08:29:22;8.88;;;6.65;;
64031;SDS011;50278;47.796;11.968;2023-04-08T08:31:48;7.97;;;6.57;;
64031;SDS011;50278;47.796;11.968;2023-04-08T08:34:13;9.65;;;6.40;;
64031;SDS011;50278;47.796;11.968;2023-04-08T08:36:39;12.00;;;7.40;;
64031;SDS011;50278;47.796;11.968;2023-04-08T08:39:05;12.88;;;7.40;;
64031;SDS011;50278;47.796;11.968;2023-04-08T08:41:33;10.10;;;6.80;;
64031;SDS011;50278;47.796;11.968;2023-04-08T08:44:01;12.02;;;9.75;;
64031;SDS011;50278;47.796;11.968;2023-04-08T08:46:27;12.85;;;10.23;;
64031;SDS011;50278;47.796;11.968;2023-04-08T08:48:53;15.90;;;12.25;;
64031;SDS011;50278;47.796;11.968;2023-04-08T08:51:19;15.90;;;11.38;;
64031;SDS011;50278;47.796;11.968;2023-04-08T08:53:45;15.13;;;11.75;;
64031;SDS011;50278;47.796;11.968;2023-04-08T08:56:11;17.90;;;11.85;;
64031;SDS011;50278;47.796;11.968;2023-04-08T08:58:36;20.65;;;13.43;;
64031;SDS011;50278;47.796;11.968;2023-04-08T09:01:25;21.58;;;13.38;;
64031;SDS011;50278;47.796;11.968;2023-04-08T09:07:10;19.33;;;12.02;;
64031;SDS011;50278;47.796;11.968;2023-04-08T09:09:50;22.50;;;15.02;;
64031;SDS011;50278;47.796;11.968;2023-04-08T09:12:17;20.08;;;13.32;;
64031;SDS011;50278;47.796;11.968;2023-04-08T09:14:43;21.27;;;14.68;;
64031;SDS011;50278;47.796;11.968;2023-04-08T09:17:09;20.73;;;13.90;;
64031;SDS011;50278;47.796;11.968;2023-04-08T09:19:35;19.90;;;13.80;;
64031;SDS011;50278;47.796;11.968;2023-04-08T09:22:05;19.15;;;13.60;;
64031;SDS011;50278;47.796;11.968;2023-04-08T09:24:32;19.70;;;13.18;;
64031;SDS011;50278;47.796;11.968;2023-04-08T09:26:58;19.55;;;14.00;;
64031;SDS011;50278;47.796;11.968;2023-04-08T09:29:26;21.80;;;14.23;;
64031;SDS011;50278;47.796;11.968;2023-04-08T09:31:58;16.63;;;12.20;;
64031;SDS011;50278;47.796;11.968;2023-04-08T09:34:25;20.70;;;13.90;;
64031;SDS011;50278;47.796;11.968;2023-04-08T09:36:52;18.27;;;13.73;;
64031;SDS011;50278;47.796;11.968;2023-04-08T09:39:18;20.25;;;14.60;;
64031;SDS011;50278;47.796;11.968;2023-04-08T09:41:46;22.35;;;15.88;;
64031;SDS011;50278;47.796;11.968;2023-04-08T09:44:13;24.83;;;16.65;;
64031;SDS011;50278;47.796;11.968;2023-04-08T09:46:46;24.05;;;15.73;;
64031;SDS011;50278;47.796;11.968;2023-04-08T09:52:06;20.80;;;14.82;;
64031;SDS011;50278;47.796;11.968;2023-04-08T09:59:35;19.10;;;13.30;;
64031;SDS011;50278;47.796;11.968;2023-04-08T10:02:06;22.27;;;16.42;;
64031;SDS011;50278;47.796;11.968;2023-04-08T10:04:36;20.08;;;15.05;;
64031;SDS011;50278;47.796;11.968;2023-04-08T10:07:05;21.58;;;15.07;;
64031;SDS011;50278;47.796;11.968;2023-04-08T10:09:33;23.05;;;15.32;;
64031;SDS011;50278;47.796;11.968;2023-04-08T10:11:59;20.13;;;14.90;;
64031;SDS011;50278;47.796;11.968;2023-04-08T10:14:26;22.48;;;15.77;;
64031;SDS011;50278;47.796;11.968;2023-04-08T10:19:52;21.48;;;15.93;;
64031;SDS011;50278;47.796;11.968;2023-04-08T10:27:41;18.08;;;12.35;;
64031;SDS011;50278;47.796;11.968;2023-04-08T10:33:08;13.90;;;11.63;;
64031;SDS011;50278;47.796;11.968;2023-04-08T10:35:35;13.30;;;10.38;;
64031;SDS011;50278;47.796;11.968;2023-04-08T10:38:02;18.17;;;12.88;;
64031;SDS011;50278;47.796;11.968;2023-04-08T10:40:27;16.50;;;13.25;;
64031;SDS011;50278;47.796;11.968;2023-04-08T10:42:54;20.40;;;14.95;;
64031;SDS011;50278;47.796;11.968;2023-04-08T10:45:23;19.08;;;14.18;;
64031;SDS011;50278;47.796;11.968;2023-04-08T10:47:49;18.38;;;14.32;;
64031;SDS011;50278;47.796;11.968;2023-04-08T10:50:15;19.02;;;14.30;;
64031;SDS011;50278;47.796;11.968;2023-04-08T10:53:00;19.42;;;15.15;;
64031;SDS011;50278;47.796;11.968;2023-04-08T10:55:26;20.63;;;15.07;;
64031;SDS011;50278;47.796;11.968;2023-04-08T10:57:52;19.98;;;15.75;;
64031;SDS011;50278;47.796;11.968;2023-04-08T11:00:39;18.25;;;13.82;;
64031;SDS011;50278;47.796;11.968;2023-04-08T11:03:06;14.57;;;12.02;;
64031;SDS011;50278;47.796;11.968;2023-04-08T11:05:35;17.85;;;13.50;;
64031;SDS011;50278;47.796;11.968;2023-04-08T11:08:01;16.15;;;12.65;;
64031;SDS011;50278;47.796;11.968;2023-04-08T11:10:27;15.70;;;12.10;;
64031;SDS011;50278;47.796;11.968;2023-04-08T11:12:53;16.23;;;12.50;;
64031;SDS011;50278;47.796;11.968;2023-04-08T11:15:20;17.92;;;13.30;;
64031;SDS011;50278;47.796;11.968;2023-04-08T11:17:49;16.73;;;12.57;;
64031;SDS011;50278;47.796;11.968;2023-04-08T11:20:15;15.02;;;12.27;;
64031;SDS011;50278;47.796;11.968;2023-04-08T11:22:42;15.05;;;11.82;;
64031;SDS011;50278;47.796;11.968;2023-04-08T11:25:09;15.63;;;12.57;;
64031;SDS011;50278;47.796;11.968;2023-04-08T11:27:36;16.92;;;12.93;;
64031;SDS011;50278;47.796;11.968;2023-04-08T11:30:03;15.73;;;12.15;;
64031;SDS011;50278;47.796;11.968;2023-04-08T11:32:30;17.20;;;13.27;;
64031;SDS011;50278;47.796;11.968;2023-04-08T11:34:58;15.10;;;11.50;;
64031;SDS011;50278;47.796;11.968;2023-04-08T11:37:25;15.30;;;12.15;;
64031;SDS011;50278;47.796;11.968;2023-04-08T11:39:51;16.58;;;13.35;;
64031;SDS011;50278;47.796;11.968;2023-04-08T11:42:28;17.63;;;12.85;;
64031;SDS011;50278;47.796;11.968;2023-04-08T11:44:54;12.55;;;10.70;;
64031;SDS011;50278;47.796;11.968;2023-04-08T11:47:20;15.73;;;11.85;;
64031;SDS011;50278;47.796;11.968;2023-04-08T11:49:46;14.35;;;11.60;;
64031;SDS011;50278;47.796;11.968;2023-04-08T11:52:12;13.70;;;11.38;;
64031;SDS011;50278;47.796;11.968;2023-04-08T11:54:41;13.85;;;11.25;;
64031;SDS011;50278;47.796;11.968;2023-04-08T11:57:07;13.77;;;11.32;;
64031;SDS011;50278;47.796;11.968;2023-04-08T11:59:34;15.65;;;12.02;;
64031;SDS011;50278;47.796;11.968;2023-04-08T12:02:00;14.85;;;11.32;;
64031;SDS011;50278;47.796;11.968;2023-04-08T12:04:27;14.48;;;11.88;;
64031;SDS011;50278;47.796;11.968;2023-04-08T12:06:53;14.13;;;11.35;;
64031;SDS011;50278;47.796;11.968;2023-04-08T12:09:19;15.23;;;12.85;;
64031;SDS011;50278;47.796;11.968;2023-04-08T12:11:45;16.58;;;13.10;;
64031;SDS011;50278;47.796;11.968;2023-04-08T12:14:10;16.45;;;12.57;;
64031;SDS011;50278;47.796;11.968;2023-04-08T12:16:36;17.00;;;13.27;;
64031;SDS011;50278;47.796;11.968;2023-04-08T12:19:01;14.02;;;11.60;;
64031;SDS011;50278;47.796;11.968;2023-04-08T12:21:27;15.23;;;12.57;;
64031;SDS011;50278;47.796;11.968;2023-04-08T12:23:53;16.13;;;12.45;;
64031;SDS011;50278;47.796;11.968;2023-04-08T12:26:18;17.88;;;12.95;;
64031;SDS011;50278;47.796;11.968;2023-04-08T12:28:44;17.23;;;13.05;;
64031;SDS011;50278;47.796;11.968;2023-04-08T12:31:10;18.05;;;13.70;;
64031;SDS011;50278;47.796;11.968;2023-04-08T12:33:36;20.63;;;14.93;;
64031;SDS011;50278;47.796;11.968;2023-04-08T12:36:02;21.80;;;15.90;;
64031;SDS011;50278;47.796;11.968;2023-04-08T12:38:28;20.80;;;15.63;;
64031;SDS011;50278;47.796;11.968;2023-04-08T12:40:53;19.67;;;15.50;;
64031;SDS011;50278;47.796;11.968;2023-04-08T12:43:20;22.27;;;16.73;;
64031;SDS011;50278;47.796;11.968;2023-04-08T12:45:47;23.20;;;16.98;;
64031;SDS011;50278;47.796;11.968;2023-04-08T12:48:13;21.98;;;16.30;;
64031;SDS011;50278;47.796;11.968;2023-04-08T12:50:39;22.02;;;15.52;;
64031;SDS011;50278;47.796;11.968;2023-04-08T12:53:06;18.20;;;15.32;;
64031;SDS011;50278;47.796;11.968;2023-04-08T12:55:31;23.23;;;17.48;;
64031;SDS011;50278;47.796;11.968;2023-04-08T12:57:57;22.10;;;16.35;;
64031;SDS011;50278;47.796;11.968;2023-04-08T13:00:22;25.33;;;17.48;;
64031;SDS011;50278;47.796;11.968;2023-04-08T13:02:49;22.98;;;16.95;;
64031;SDS011;50278;47.796;11.968;2023-04-08T13:05:14;23.92;;;17.08;;
64031;SDS011;50278;47.796;11.968;2023-04-08T13:07:40;20.98;;;15.55;;
64031;SDS011;50278;47.796;11.968;2023-04-08T13:10:08;19.77;;;15.27;;
64031;SDS011;50278;47.796;11.968;2023-04-08T13:12:34;20.52;;;15.70;;
64031;SDS011;50278;47.796;11.968;2023-04-08T13:15:00;26.42;;;18.83;;
64031;SDS011;50278;47.796;11.968;2023-04-08T13:17:25;23.63;;;17.40;;
64031;SDS011;50278;47.796;11.968;2023-04-08T13:19:52;23.58;;;16.65;;
64031;SDS011;50278;47.796;11.968;2023-04-08T13:22:17;26.15;;;18.42;;
64031;SDS011;50278;47.796;11.968;2023-04-08T13:24:43;26.58;;;17.27;;
64031;SDS011;50278;47.796;11.968;2023-04-08T13:27:08;23.90;;;17.98;;
64031;SDS011;50278;47.796;11.968;2023-04-08T13:29:34;23.90;;;16.27;;
64031;SDS011;50278;47.796;11.968;2023-04-08T13:31:59;20.63;;;16.35;;
64031;SDS011;50278;47.796;11.968;2023-04-08T13:34:25;23.55;;;16.38;;
64031;SDS011;50278;47.796;11.968;2023-04-08T13:36:51;22.25;;;16.45;;
64031;SDS011;50278;47.796;11.968;2023-04-08T13:39:17;25.27;;;17.25;;
64031;SDS011;50278;47.796;11.968;2023-04-08T13:41:42;21.13;;;15.98;;
64031;SDS011;50278;47.796;11.968;2023-04-08T13:44:08;22.77;;;16.33;;
64031;SDS011;50278;47.796;11.968;2023-04-08T13:46:34;21.80;;;16.45;;
64031;SDS011;50278;47.796;11.968;2023-04-08T13:49:00;24.20;;;18.15;;
64031;SDS011;50278;47.796;11.968;2023-04-08T13:51:27;24.63;;;18.35;;
64031;SDS011;50278;47.796;11.968;2023-04-08T13:53:53;20.42;;;15.63;;
64031;SDS011;50278;47.796;11.968;2023-04-08T13:56:18;18.98;;;13.48;;
64031;SDS011;50278;47.796;11.968;2023-04-08T13:58:45;16.48;;;13.52;;
64031;SDS011;50278;47.796;11.968;2023-04-08T14:01:11;17.90;;;13.68;;
64031;SDS011;50278;47.796;11.968;2023-04-08T14:03:36;17.65;;;14.50;;
64031;SDS011;50278;47.796;11.968;2023-04-08T14:06:02;18.48;;;14.45;;
64031;SDS011;50278;47.796;11.968;2023-04-08T14:08:27;21.33;;;15.93;;
64031;SDS011;50278;47.796;11.968;2023-04-08T14:10:56;19.70;;;13.75;;
64031;SDS011;50278;47.796;11.968;2023-04-08T14:13:22;18.70;;;13.68;;
64031;SDS011;50278;47.796;11.968;2023-04-08T14:15:47;17.60;;;13.38;;
64031;SDS011;50278;47.796;11.968;2023-04-08T14:18:13;17.88;;;13.68;;
64031;SDS011;50278;47.796;11.968;2023-04-08T14:20:42;19.35;;;14.07;;
64031;SDS011;50278;47.796;11.968;2023-04-08T14:23:07;20.30;;;14.43;;
64031;SDS011;50278;47.796;11.968;2023-04-08T14:25:33;19.40;;;14.48;;
64031;SDS011;50278;47.796;11.968;2023-04-08T14:27:59;17.95;;;14.30;;
64031;SDS011;50278;47.796;11.968;2023-04-08T14:30:25;18.05;;;13.68;;
64031;SDS011;50278;47.796;11.968;2023-04-08T14:32:51;17.42;;;13.95;;
64031;SDS011;50278;47.796;11.968;2023-04-08T14:35:17;17.70;;;13.55;;
64031;SDS011;50278;47.796;11.968;2023-04-08T14:37:42;17.23;;;13.55;;
64031;SDS011;50278;47.796;11.968;2023-04-08T14:40:08;15.25;;;12.07;;
64031;SDS011;50278;47.796;11.968;2023-04-08T14:42:34;15.95;;;11.65;;
64031;SDS011;50278;47.796;11.968;2023-04-08T14:45:00;12.85;;;10.88;;
64031;SDS011;50278;47.796;11.968;2023-04-08T14:47:26;17.30;;;12.75;;
64031;SDS011;50278;47.796;11.968;2023-04-08T14:49:51;14.23;;;11.07;;
64031;SDS011;50278;47.796;11.968;2023-04-08T14:52:17;17.38;;;11.55;;
64031;SDS011;50278;47.796;11.968;2023-04-08T14:54:42;13.30;;;10.27;;